sensor_id;sensor_type;location;lat;lon;timestamp;P1;durP1;ratioP1;P2;durP2;ratioP2
48040;SDS011;33815;48.386;11.738;2022-09-09T00:01:54;2.58;;;1.83;;
48040;SDS011;33815;48.386;11.738;2022-09-09T00:04:39;2.35;;;2.00;;
48040;SDS011;33815;48.386;11.738;2022-09-09T00:12:40;2.03;;;1.70;;
48040;SDS011;33815;48.386;11.738;2022-09-09T00:15:16;2.33;;;2.17;;
48040;SDS011;33815;48.386;11.738;2022-09-09T00:23:11;2.45;;;2.25;;
48040;SDS011;33815;48.386;11.738;2022-09-09T00:28:20;1.77;;;1.67;;
48040;SDS011;33815;48.386;11.738;2022-09-09T00:30:49;1.80;;;1.70;;
48040;SDS011;33815;48.386;11.738;2022-09-09T00:33:16;2.00;;;1.90;;
48040;SDS011;33815;48.386;11.738;2022-09-09T00:35:48;2.50;;;2.30;;
48040;SDS011;33815;48.386;11.738;2022-09-09T00:38:27;2.50;;;2.30;;
48040;SDS011;33815;48.386;11.738;2022-09-09T00:41:00;2.55;;;2.17;;
48040;SDS011;33815;48.386;11.738;2022-09-09T00:43:33;2.92;;;2.75;;
48040;SDS011;33815;48.386;11.738;2022-09-09T00:46:21;2.30;;;2.10;;
48040;SDS011;33815;48.386;11.738;2022-09-09T00:49:15;2.43;;;1.90;;
48040;SDS011;33815;48.386;11.738;2022-09-09T00:54:40;1.73;;;1.63;;
48040;SDS011;33815;48.386;11.738;2022-09-09T00:57:23;1.63;;;1.55;;
48040;SDS011;33815;48.386;11.738;2022-09-09T01:08:00;2.28;;;2.08;;
48040;SDS011;33815;48.386;11.738;2022-09-09T01:13:31;2.45;;;2.28;;
48040;SDS011;33815;48.386;11.738;2022-09-09T01:16:00;3.88;;;2.50;;
48040;SDS011;33815;48.386;11.738;2022-09-09T01:18:32;3.40;;;2.58;;
48040;SDS011;33815;48.386;11.738;2022-09-09T01:21:04;3.10;;;2.90;;
48040;SDS011;33815;48.386;11.738;2022-09-09T01:26:34;4.13;;;3.40;;
48040;SDS011;33815;48.386;11.738;2022-09-09T01:29:01;4.07;;;3.55;;
48040;SDS011;33815;48.386;11.738;2022-09-09T01:34:20;3.60;;;3.30;;
48040;SDS011;33815;48.386;11.738;2022-09-09T01:36:59;3.65;;;3.25;;
48040;SDS011;33815;48.386;11.738;2022-09-09T01:39:29;3.60;;;3.28;;
48040;SDS011;33815;48.386;11.738;2022-09-09T01:41:56;3.67;;;3.38;;
48040;SDS011;33815;48.386;11.738;2022-09-09T01:44:21;3.25;;;2.97;;
48040;SDS011;33815;48.386;11.738;2022-09-09T01:46:47;4.00;;;2.63;;
48040;SDS011;33815;48.386;11.738;2022-09-09T01:49:13;3.53;;;3.20;;
48040;SDS011;33815;48.386;11.738;2022-09-09T01:51:39;3.45;;;3.13;;
48040;SDS011;33815;48.386;11.738;2022-09-09T01:54:07;6.18;;;3.47;;
48040;SDS011;33815;48.386;11.738;2022-09-09T02:04:50;3.33;;;3.03;;
48040;SDS011;33815;48.386;11.738;2022-09-09T02:07:30;4.35;;;3.58;;
48040;SDS011;33815;48.386;11.738;2022-09-09T02:10:11;3.05;;;2.75;;
48040;SDS011;33815;48.386;11.738;2022-09-09T02:12:42;3.53;;;3.00;;
48040;SDS011;33815;48.386;11.738;2022-09-09T02:15:15;4.65;;;3.88;;
48040;SDS011;33815;48.386;11.738;2022-09-09T02:17:45;2.75;;;2.55;;
48040;SDS011;33815;48.386;11.738;2022-09-09T02:20:13;5.03;;;3.10;;
48040;SDS011;33815;48.386;11.738;2022-09-09T02:22:40;3.15;;;2.85;;
48040;SDS011;33815;48.386;11.738;2022-09-09T02:25:09;3.38;;;2.55;;
48040;SDS011;33815;48.386;11.738;2022-09-09T02:27:38;2.83;;;2.60;;
48040;SDS011;33815;48.386;11.738;2022-09-09T02:30:06;3.10;;;2.90;;
48040;SDS011;33815;48.386;11.738;2022-09-09T02:32:32;3.20;;;2.90;;
48040;SDS011;33815;48.386;11.738;2022-09-09T02:35:02;5.18;;;2.70;;
48040;SDS011;33815;48.386;11.738;2022-09-09T02:37:32;4.30;;;2.63;;
48040;SDS011;33815;48.386;11.738;2022-09-09T02:40:05;3.13;;;2.67;;
48040;SDS011;33815;48.386;11.738;2022-09-09T02:42:37;4.65;;;3.13;;
48040;SDS011;33815;48.386;11.738;2022-09-09T02:45:04;3.22;;;2.95;;
48040;SDS011;33815;48.386;11.738;2022-09-09T02:47:32;2.70;;;2.38;;
48040;SDS011;33815;48.386;11.738;2022-09-09T02:55:36;3.90;;;3.03;;
48040;SDS011;33815;48.386;11.738;2022-09-09T02:58:05;3.10;;;2.80;;
48040;SDS011;33815;48.386;11.738;2022-09-09T03:00:33;3.10;;;2.80;;
48040;SDS011;33815;48.386;11.738;2022-09-09T03:03:00;4.40;;;3.50;;
48040;SDS011;33815;48.386;11.738;2022-09-09T03:05:27;3.15;;;2.70;;
48040;SDS011;33815;48.386;11.738;2022-09-09T03:07:53;3.38;;;2.97;;
48040;SDS011;33815;48.386;11.738;2022-09-09T03:10:18;3.95;;;2.88;;
48040;SDS011;33815;48.386;11.738;2022-09-09T03:12:44;2.63;;;2.42;;
48040;SDS011;33815;48.386;11.738;2022-09-09T03:15:09;2.80;;;2.60;;
48040;SDS011;33815;48.386;11.738;2022-09-09T03:17:35;5.68;;;2.95;;
48040;SDS011;33815;48.386;11.738;2022-09-09T03:20:01;3.55;;;3.25;;
48040;SDS011;33815;48.386;11.738;2022-09-09T03:22:27;4.10;;;3.10;;
48040;SDS011;33815;48.386;11.738;2022-09-09T03:24:52;3.38;;;3.08;;
48040;SDS011;33815;48.386;11.738;2022-09-09T03:27:18;3.30;;;3.00;;
48040;SDS011;33815;48.386;11.738;2022-09-09T03:29:44;5.07;;;2.50;;
48040;SDS011;33815;48.386;11.738;2022-09-09T03:32:10;3.03;;;2.80;;
48040;SDS011;33815;48.386;11.738;2022-09-09T03:34:35;2.88;;;2.63;;
48040;SDS011;33815;48.386;11.738;2022-09-09T03:37:03;3.15;;;2.85;;
48040;SDS011;33815;48.386;11.738;2022-09-09T03:39:30;2.70;;;2.50;;
48040;SDS011;33815;48.386;11.738;2022-09-09T03:41:55;3.42;;;3.13;;
48040;SDS011;33815;48.386;11.738;2022-09-09T03:44:21;3.00;;;2.70;;
48040;SDS011;33815;48.386;11.738;2022-09-09T03:46:46;4.18;;;2.75;;
48040;SDS011;33815;48.386;11.738;2022-09-09T03:49:11;3.10;;;2.87;;
48040;SDS011;33815;48.386;11.738;2022-09-09T03:51:37;2.72;;;2.55;;
48040;SDS011;33815;48.386;11.738;2022-09-09T03:54:03;4.15;;;3.03;;
48040;SDS011;33815;48.386;11.738;2022-09-09T03:56:30;3.38;;;3.08;;
48040;SDS011;33815;48.386;11.738;2022-09-09T03:58:56;4.70;;;2.88;;
48040;SDS011;33815;48.386;11.738;2022-09-09T04:01:22;2.67;;;2.47;;
48040;SDS011;33815;48.386;11.738;2022-09-09T04:03:47;2.78;;;2.55;;
48040;SDS011;33815;48.386;11.738;2022-09-09T04:06:13;5.55;;;2.40;;
48040;SDS011;33815;48.386;11.738;2022-09-09T04:08:40;2.58;;;2.38;;
48040;SDS011;33815;48.386;11.738;2022-09-09T04:11:06;2.63;;;2.42;;
48040;SDS011;33815;48.386;11.738;2022-09-09T04:13:35;3.88;;;2.67;;
48040;SDS011;33815;48.386;11.738;2022-09-09T04:16:05;2.50;;;2.30;;
48040;SDS011;33815;48.386;11.738;2022-09-09T04:18:31;5.55;;;2.20;;
48040;SDS011;33815;48.386;11.738;2022-09-09T04:20:57;2.40;;;2.20;;
48040;SDS011;33815;48.386;11.738;2022-09-09T04:23:23;2.45;;;2.20;;
48040;SDS011;33815;48.386;11.738;2022-09-09T04:25:51;3.38;;;2.60;;
48040;SDS011;33815;48.386;11.738;2022-09-09T04:28:18;5.88;;;2.55;;
48040;SDS011;33815;48.386;11.738;2022-09-09T04:30:46;3.60;;;2.38;;
48040;SDS011;33815;48.386;11.738;2022-09-09T04:33:12;4.32;;;2.40;;
48040;SDS011;33815;48.386;11.738;2022-09-09T04:35:38;3.40;;;2.22;;
48040;SDS011;33815;48.386;11.738;2022-09-09T04:38:08;2.50;;;2.30;;
48040;SDS011;33815;48.386;11.738;2022-09-09T04:40:34;4.72;;;2.40;;
48040;SDS011;33815;48.386;11.738;2022-09-09T04:43:00;2.42;;;2.22;;
48040;SDS011;33815;48.386;11.738;2022-09-09T04:45:29;4.13;;;2.38;;
48040;SDS011;33815;48.386;11.738;2022-09-09T04:47:55;4.75;;;2.42;;
48040;SDS011;33815;48.386;11.738;2022-09-09T04:50:21;2.65;;;2.42;;
48040;SDS011;33815;48.386;11.738;2022-09-09T04:52:46;2.83;;;2.30;;
48040;SDS011;33815;48.386;11.738;2022-09-09T04:55:12;4.82;;;2.60;;
48040;SDS011;33815;48.386;11.738;2022-09-09T04:57:38;2.20;;;1.92;;
48040;SDS011;33815;48.386;11.738;2022-09-09T05:00:04;2.60;;;2.10;;
48040;SDS011;33815;48.386;11.738;2022-09-09T05:02:29;3.90;;;2.80;;
48040;SDS011;33815;48.386;11.738;2022-09-09T05:04:55;2.65;;;2.45;;
48040;SDS011;33815;48.386;11.738;2022-09-09T05:07:21;3.10;;;2.50;;
48040;SDS011;33815;48.386;11.738;2022-09-09T05:09:46;4.07;;;2.65;;
48040;SDS011;33815;48.386;11.738;2022-09-09T05:12:13;5.65;;;2.53;;
48040;SDS011;33815;48.386;11.738;2022-09-09T05:14:38;2.83;;;2.28;;
48040;SDS011;33815;48.386;11.738;2022-09-09T05:17:03;3.22;;;3.03;;
48040;SDS011;33815;48.386;11.738;2022-09-09T05:19:29;4.80;;;2.70;;
48040;SDS011;33815;48.386;11.738;2022-09-09T05:21:56;3.15;;;2.85;;
48040;SDS011;33815;48.386;11.738;2022-09-09T05:24:21;2.83;;;2.53;;
48040;SDS011;33815;48.386;11.738;2022-09-09T05:26:48;3.17;;;2.35;;
48040;SDS011;33815;48.386;11.738;2022-09-09T05:29:13;2.55;;;2.30;;
48040;SDS011;33815;48.386;11.738;2022-09-09T05:31:38;2.30;;;2.08;;
48040;SDS011;33815;48.386;11.738;2022-09-09T05:34:04;2.92;;;2.63;;
48040;SDS011;33815;48.386;11.738;2022-09-09T05:36:29;3.65;;;2.78;;
48040;SDS011;33815;48.386;11.738;2022-09-09T05:38:55;3.08;;;2.60;;
48040;SDS011;33815;48.386;11.738;2022-09-09T05:41:20;3.38;;;3.03;;
48040;SDS011;33815;48.386;11.738;2022-09-09T05:43:46;2.83;;;2.53;;
48040;SDS011;33815;48.386;11.738;2022-09-09T05:46:14;3.08;;;2.72;;
48040;SDS011;33815;48.386;11.738;2022-09-09T05:48:44;2.80;;;2.60;;
48040;SDS011;33815;48.386;11.738;2022-09-09T05:51:16;3.70;;;2.72;;
48040;SDS011;33815;48.386;11.738;2022-09-09T05:53:44;2.67;;;2.28;;
48040;SDS011;33815;48.386;11.738;2022-09-09T05:56:11;2.50;;;2.30;;
48040;SDS011;33815;48.386;11.738;2022-09-09T05:58:40;4.35;;;3.20;;
48040;SDS011;33815;48.386;11.738;2022-09-09T06:01:12;3.03;;;2.72;;
48040;SDS011;33815;48.386;11.738;2022-09-09T06:03:40;2.45;;;2.20;;
48040;SDS011;33815;48.386;11.738;2022-09-09T06:06:07;2.50;;;2.30;;
48040;SDS011;33815;48.386;11.738;2022-09-09T06:08:34;2.78;;;2.58;;
48040;SDS011;33815;48.386;11.738;2022-09-09T06:11:05;2.63;;;2.42;;
48040;SDS011;33815;48.386;11.738;2022-09-09T06:13:32;3.33;;;2.97;;
48040;SDS011;33815;48.386;11.738;2022-09-09T06:15:58;5.82;;;2.58;;
48040;SDS011;33815;48.386;11.738;2022-09-09T06:18:24;3.42;;;2.50;;
48040;SDS011;33815;48.386;11.738;2022-09-09T06:20:58;2.97;;;2.45;;
48040;SDS011;33815;48.386;11.738;2022-09-09T06:23:24;2.90;;;2.35;;
48040;SDS011;33815;48.386;11.738;2022-09-09T06:25:50;2.80;;;2.60;;
48040;SDS011;33815;48.386;11.738;2022-09-09T06:28:15;3.85;;;2.80;;
48040;SDS011;33815;48.386;11.738;2022-09-09T06:30:42;2.17;;;2.03;;
48040;SDS011;33815;48.386;11.738;2022-09-09T06:33:07;2.70;;;1.85;;
48040;SDS011;33815;48.386;11.738;2022-09-09T06:35:32;3.20;;;2.25;;
48040;SDS011;33815;48.386;11.738;2022-09-09T06:37:58;2.30;;;2.03;;
48040;SDS011;33815;48.386;11.738;2022-09-09T06:40:23;2.50;;;2.30;;
48040;SDS011;33815;48.386;11.738;2022-09-09T06:42:49;2.47;;;2.00;;
48040;SDS011;33815;48.386;11.738;2022-09-09T06:45:14;2.83;;;1.98;;
48040;SDS011;33815;48.386;11.738;2022-09-09T06:47:40;2.55;;;2.35;;
48040;SDS011;33815;48.386;11.738;2022-09-09T06:50:06;2.20;;;1.88;;
48040;SDS011;33815;48.386;11.738;2022-09-09T06:52:32;2.03;;;1.92;;
48040;SDS011;33815;48.386;11.738;2022-09-09T06:54:58;3.03;;;1.73;;
48040;SDS011;33815;48.386;11.738;2022-09-09T06:57:23;1.73;;;1.63;;
48040;SDS011;33815;48.386;11.738;2022-09-09T06:59:49;1.60;;;1.50;;
48040;SDS011;33815;48.386;11.738;2022-09-09T07:02:14;1.83;;;1.73;;
48040;SDS011;33815;48.386;11.738;2022-09-09T07:04:39;2.17;;;1.70;;
48040;SDS011;33815;48.386;11.738;2022-09-09T07:07:05;1.80;;;1.50;;
48040;SDS011;33815;48.386;11.738;2022-09-09T07:09:30;1.63;;;1.52;;
48040;SDS011;33815;48.386;11.738;2022-09-09T07:11:56;3.95;;;2.00;;
48040;SDS011;33815;48.386;11.738;2022-09-09T07:14:24;4.28;;;2.28;;
48040;SDS011;33815;48.386;11.738;2022-09-09T07:16:49;2.53;;;1.95;;
48040;SDS011;33815;48.386;11.738;2022-09-09T07:19:15;2.83;;;1.90;;
48040;SDS011;33815;48.386;11.738;2022-09-09T07:21:40;3.50;;;2.80;;
48040;SDS011;33815;48.386;11.738;2022-09-09T07:24:06;4.10;;;3.38;;
48040;SDS011;33815;48.386;11.738;2022-09-09T07:26:36;3.90;;;2.13;;
48040;SDS011;33815;48.386;11.738;2022-09-09T07:29:02;3.88;;;2.00;;
48040;SDS011;33815;48.386;11.738;2022-09-09T07:31:30;2.45;;;2.22;;
48040;SDS011;33815;48.386;11.738;2022-09-09T07:33:56;4.72;;;2.83;;
48040;SDS011;33815;48.386;11.738;2022-09-09T07:36:24;4.38;;;2.30;;
48040;SDS011;33815;48.386;11.738;2022-09-09T07:38:51;2.45;;;2.25;;
48040;SDS011;33815;48.386;11.738;2022-09-09T07:41:20;2.78;;;2.17;;
48040;SDS011;33815;48.386;11.738;2022-09-09T07:43:49;5.90;;;2.45;;
48040;SDS011;33815;48.386;11.738;2022-09-09T07:46:15;2.25;;;1.88;;
48040;SDS011;33815;48.386;11.738;2022-09-09T07:48:49;5.93;;;2.47;;
48040;SDS011;33815;48.386;11.738;2022-09-09T07:51:16;4.65;;;2.40;;
48040;SDS011;33815;48.386;11.738;2022-09-09T07:53:44;2.38;;;2.10;;
48040;SDS011;33815;48.386;11.738;2022-09-09T07:56:15;4.35;;;1.83;;
48040;SDS011;33815;48.386;11.738;2022-09-09T07:58:41;7.47;;;2.00;;
48040;SDS011;33815;48.386;11.738;2022-09-09T08:01:13;4.57;;;2.58;;
48040;SDS011;33815;48.386;11.738;2022-09-09T08:03:42;2.55;;;1.63;;
48040;SDS011;33815;48.386;11.738;2022-09-09T08:06:09;3.97;;;2.45;;
48040;SDS011;33815;48.386;11.738;2022-09-09T08:08:36;3.72;;;1.60;;
48040;SDS011;33815;48.386;11.738;2022-09-09T08:11:07;2.22;;;1.80;;
48040;SDS011;33815;48.386;11.738;2022-09-09T08:13:35;3.25;;;2.10;;
48040;SDS011;33815;48.386;11.738;2022-09-09T08:16:09;2.33;;;1.67;;
48040;SDS011;33815;48.386;11.738;2022-09-09T08:18:37;1.35;;;1.33;;
48040;SDS011;33815;48.386;11.738;2022-09-09T08:21:10;2.55;;;1.65;;
48040;SDS011;33815;48.386;11.738;2022-09-09T08:23:40;1.63;;;1.52;;
48040;SDS011;33815;48.386;11.738;2022-09-09T08:26:09;2.30;;;1.45;;
48040;SDS011;33815;48.386;11.738;2022-09-09T08:28:36;2.92;;;1.70;;
48040;SDS011;33815;48.386;11.738;2022-09-09T08:31:21;3.67;;;1.67;;
48040;SDS011;33815;48.386;11.738;2022-09-09T08:33:49;2.28;;;1.60;;
48040;SDS011;33815;48.386;11.738;2022-09-09T08:36:16;3.65;;;1.55;;
48040;SDS011;33815;48.386;11.738;2022-09-09T08:38:43;3.38;;;1.50;;
48040;SDS011;33815;48.386;11.738;2022-09-09T08:44:01;1.70;;;1.60;;
48040;SDS011;33815;48.386;11.738;2022-09-09T08:49:14;2.15;;;1.20;;
48040;SDS011;33815;48.386;11.738;2022-09-09T08:51:50;2.78;;;1.30;;
48040;SDS011;33815;48.386;11.738;2022-09-09T08:54:21;2.53;;;1.38;;
48040;SDS011;33815;48.386;11.738;2022-09-09T08:56:47;4.15;;;1.63;;
48040;SDS011;33815;48.386;11.738;2022-09-09T08:59:14;1.27;;;1.17;;
48040;SDS011;33815;48.386;11.738;2022-09-09T09:01:50;1.60;;;1.50;;
48040;SDS011;33815;48.386;11.738;2022-09-09T09:07:35;4.07;;;1.60;;
48040;SDS011;33815;48.386;11.738;2022-09-09T09:10:04;4.35;;;2.35;;
48040;SDS011;33815;48.386;11.738;2022-09-09T09:12:53;3.90;;;1.65;;
48040;SDS011;33815;48.386;11.738;2022-09-09T09:15:21;4.70;;;2.85;;
48040;SDS011;33815;48.386;11.738;2022-09-09T09:17:49;4.38;;;2.47;;
48040;SDS011;33815;48.386;11.738;2022-09-09T09:20:15;3.38;;;2.40;;
48040;SDS011;33815;48.386;11.738;2022-09-09T09:22:50;3.40;;;1.95;;
48040;SDS011;33815;48.386;11.738;2022-09-09T09:27:59;4.38;;;1.80;;
48040;SDS011;33815;48.386;11.738;2022-09-09T09:30:39;3.30;;;1.77;;
48040;SDS011;33815;48.386;11.738;2022-09-09T09:36:01;1.38;;;1.20;;
48040;SDS011;33815;48.386;11.738;2022-09-09T09:38:28;2.58;;;2.42;;
48040;SDS011;33815;48.386;11.738;2022-09-09T09:43:27;4.65;;;1.60;;
48040;SDS011;33815;48.386;11.738;2022-09-09T09:45:54;1.58;;;1.48;;
48040;SDS011;33815;48.386;11.738;2022-09-09T09:48:22;1.92;;;1.60;;
48040;SDS011;33815;48.386;11.738;2022-09-09T09:53:31;3.20;;;1.92;;
48040;SDS011;33815;48.386;11.738;2022-09-09T09:55:59;1.90;;;1.65;;
48040;SDS011;33815;48.386;11.738;2022-09-09T09:58:29;2.45;;;1.50;;
48040;SDS011;33815;48.386;11.738;2022-09-09T10:00:58;4.13;;;1.80;;
48040;SDS011;33815;48.386;11.738;2022-09-09T10:03:29;2.33;;;1.63;;
48040;SDS011;33815;48.386;11.738;2022-09-09T10:05:56;1.73;;;1.58;;
48040;SDS011;33815;48.386;11.738;2022-09-09T10:08:26;3.28;;;1.65;;
48040;SDS011;33815;48.386;11.738;2022-09-09T10:11:22;2.25;;;1.60;;
48040;SDS011;33815;48.386;11.738;2022-09-09T10:16:50;3.40;;;1.35;;
48040;SDS011;33815;48.386;11.738;2022-09-09T10:19:35;2.58;;;1.58;;
48040;SDS011;33815;48.386;11.738;2022-09-09T10:30:56;3.05;;;1.73;;
48040;SDS011;33815;48.386;11.738;2022-09-09T10:33:36;3.33;;;1.63;;
48040;SDS011;33815;48.386;11.738;2022-09-09T10:36:13;2.17;;;1.50;;
48040;SDS011;33815;48.386;11.738;2022-09-09T10:38:48;2.70;;;1.40;;
48040;SDS011;33815;48.386;11.738;2022-09-09T10:41:25;1.73;;;1.60;;
48040;SDS011;33815;48.386;11.738;2022-09-09T10:44:34;1.90;;;1.58;;
48040;SDS011;33815;48.386;11.738;2022-09-09T10:49:50;2.40;;;1.80;;
48040;SDS011;33815;48.386;11.738;2022-09-09T10:52:58;2.08;;;1.30;;
48040;SDS011;33815;48.386;11.738;2022-09-09T10:55:35;2.78;;;1.60;;
48040;SDS011;33815;48.386;11.738;2022-09-09T10:58:05;3.97;;;1.40;;
48040;SDS011;33815;48.386;11.738;2022-09-09T11:00:38;1.58;;;1.48;;
48040;SDS011;33815;48.386;11.738;2022-09-09T11:03:15;3.47;;;2.17;;
48040;SDS011;33815;48.386;11.738;2022-09-09T11:05:51;3.28;;;1.73;;
48040;SDS011;33815;48.386;11.738;2022-09-09T11:08:23;1.45;;;1.33;;
48040;SDS011;33815;48.386;11.738;2022-09-09T11:19:11;3.80;;;1.83;;
48040;SDS011;33815;48.386;11.738;2022-09-09T11:21:46;2.90;;;1.33;;
48040;SDS011;33815;48.386;11.738;2022-09-09T11:24:27;2.88;;;1.60;;
48040;SDS011;33815;48.386;11.738;2022-09-09T11:29:43;1.58;;;1.48;;
48040;SDS011;33815;48.386;11.738;2022-09-09T11:38:10;2.38;;;1.60;;
48040;SDS011;33815;48.386;11.738;2022-09-09T11:40:44;3.42;;;1.20;;
48040;SDS011;33815;48.386;11.738;2022-09-09T11:43:12;0.90;;;0.75;;
48040;SDS011;33815;48.386;11.738;2022-09-09T11:45:40;1.77;;;1.20;;
48040;SDS011;33815;48.386;11.738;2022-09-09T11:48:22;1.30;;;0.90;;
48040;SDS011;33815;48.386;11.738;2022-09-09T11:53:54;2.15;;;1.27;;
48040;SDS011;33815;48.386;11.738;2022-09-09T11:56:30;1.58;;;0.93;;
48040;SDS011;33815;48.386;11.738;2022-09-09T11:58:57;3.63;;;0.82;;
48040;SDS011;33815;48.386;11.738;2022-09-09T12:01:29;1.58;;;0.82;;
48040;SDS011;33815;48.386;11.738;2022-09-09T12:04:06;1.45;;;0.80;;
48040;SDS011;33815;48.386;11.738;2022-09-09T12:06:41;0.85;;;0.73;;
48040;SDS011;33815;48.386;11.738;2022-09-09T12:09:21;0.75;;;0.70;;
48040;SDS011;33815;48.386;11.738;2022-09-09T12:11:52;2.75;;;0.88;;
48040;SDS011;33815;48.386;11.738;2022-09-09T12:14:21;1.17;;;0.80;;
48040;SDS011;33815;48.386;11.738;2022-09-09T12:16:58;0.73;;;0.73;;
48040;SDS011;33815;48.386;11.738;2022-09-09T12:19:34;1.45;;;1.00;;
48040;SDS011;33815;48.386;11.738;2022-09-09T12:22:02;0.80;;;0.80;;
48040;SDS011;33815;48.386;11.738;2022-09-09T12:27:36;0.57;;;0.57;;
48040;SDS011;33815;48.386;11.738;2022-09-09T12:30:10;1.55;;;0.70;;
48040;SDS011;33815;48.386;11.738;2022-09-09T12:32:39;1.75;;;1.00;;
48040;SDS011;33815;48.386;11.738;2022-09-09T12:35:11;2.38;;;0.80;;
48040;SDS011;33815;48.386;11.738;2022-09-09T12:37:55;1.00;;;0.70;;
48040;SDS011;33815;48.386;11.738;2022-09-09T12:42:57;1.13;;;0.68;;
48040;SDS011;33815;48.386;11.738;2022-09-09T12:45:25;2.17;;;0.70;;
48040;SDS011;33815;48.386;11.738;2022-09-09T12:48:02;2.53;;;0.50;;
48040;SDS011;33815;48.386;11.738;2022-09-09T12:50:33;1.20;;;0.63;;
48040;SDS011;33815;48.386;11.738;2022-09-09T12:53:24;2.05;;;0.50;;
48040;SDS011;33815;48.386;11.738;2022-09-09T12:55:59;0.50;;;0.50;;
48040;SDS011;33815;48.386;11.738;2022-09-09T13:00:57;1.13;;;1.13;;
48040;SDS011;33815;48.386;11.738;2022-09-09T13:03:23;1.40;;;0.40;;
48040;SDS011;33815;48.386;11.738;2022-09-09T13:05:49;2.42;;;0.50;;
48040;SDS011;33815;48.386;11.738;2022-09-09T13:08:16;1.85;;;0.52;;
48040;SDS011;33815;48.386;11.738;2022-09-09T13:10:59;1.52;;;0.50;;
48040;SDS011;33815;48.386;11.738;2022-09-09T13:13:30;0.40;;;0.40;;
48040;SDS011;33815;48.386;11.738;2022-09-09T13:16:01;0.70;;;0.35;;
48040;SDS011;33815;48.386;11.738;2022-09-09T13:18:30;0.73;;;0.60;;
48040;SDS011;33815;48.386;11.738;2022-09-09T13:20:58;0.47;;;0.35;;
48040;SDS011;33815;48.386;11.738;2022-09-09T13:23:25;0.40;;;0.40;;
48040;SDS011;33815;48.386;11.738;2022-09-09T13:25:58;1.17;;;0.50;;
48040;SDS011;33815;48.386;11.738;2022-09-09T13:28:26;0.57;;;0.38;;
48040;SDS011;33815;48.386;11.738;2022-09-09T13:30:57;0.38;;;0.30;;
48040;SDS011;33815;48.386;11.738;2022-09-09T13:33:45;1.35;;;0.43;;
48040;SDS011;33815;48.386;11.738;2022-09-09T13:36:11;0.52;;;0.32;;
48040;SDS011;33815;48.386;11.738;2022-09-09T13:38:40;0.50;;;0.30;;
48040;SDS011;33815;48.386;11.738;2022-09-09T13:41:21;0.50;;;0.50;;
48040;SDS011;33815;48.386;11.738;2022-09-09T13:43:48;1.17;;;0.43;;
48040;SDS011;33815;48.386;11.738;2022-09-09T13:46:26;1.35;;;0.40;;
48040;SDS011;33815;48.386;11.738;2022-09-09T13:48:53;0.73;;;0.20;;
48040;SDS011;33815;48.386;11.738;2022-09-09T13:51:40;0.30;;;0.30;;
48040;SDS011;33815;48.386;11.738;2022-09-09T13:54:09;3.25;;;0.60;;
48040;SDS011;33815;48.386;11.738;2022-09-09T13:56:36;1.00;;;0.60;;
48040;SDS011;33815;48.386;11.738;2022-09-09T13:59:04;0.55;;;0.50;;
48040;SDS011;33815;48.386;11.738;2022-09-09T14:01:31;0.60;;;0.50;;
48040;SDS011;33815;48.386;11.738;2022-09-09T14:03:59;2.00;;;0.40;;
48040;SDS011;33815;48.386;11.738;2022-09-09T14:06:24;0.33;;;0.33;;
48040;SDS011;33815;48.386;11.738;2022-09-09T14:08:50;1.55;;;0.50;;
48040;SDS011;33815;48.386;11.738;2022-09-09T14:11:15;0.40;;;0.20;;
48040;SDS011;33815;48.386;11.738;2022-09-09T14:13:41;0.50;;;0.50;;
48040;SDS011;33815;48.386;11.738;2022-09-09T14:16:06;0.93;;;0.50;;
48040;SDS011;33815;48.386;11.738;2022-09-09T14:18:31;0.77;;;0.40;;
48040;SDS011;33815;48.386;11.738;2022-09-09T14:20:57;0.40;;;0.40;;
48040;SDS011;33815;48.386;11.738;2022-09-09T14:23:23;0.35;;;0.30;;
48040;SDS011;33815;48.386;11.738;2022-09-09T14:25:49;0.75;;;0.40;;
48040;SDS011;33815;48.386;11.738;2022-09-09T14:28:14;2.35;;;0.52;;
48040;SDS011;33815;48.386;11.738;2022-09-09T14:30:40;0.32;;;0.32;;
48040;SDS011;33815;48.386;11.738;2022-09-09T14:33:07;1.85;;;0.85;;
48040;SDS011;33815;48.386;11.738;2022-09-09T14:35:34;0.85;;;0.50;;
48040;SDS011;33815;48.386;11.738;2022-09-09T14:37:59;0.73;;;0.43;;
48040;SDS011;33815;48.386;11.738;2022-09-09T14:40:26;2.50;;;0.70;;
48040;SDS011;33815;48.386;11.738;2022-09-09T14:42:52;0.40;;;0.40;;
48040;SDS011;33815;48.386;11.738;2022-09-09T14:45:17;0.52;;;0.30;;
48040;SDS011;33815;48.386;11.738;2022-09-09T14:47:43;0.30;;;0.30;;
48040;SDS011;33815;48.386;11.738;2022-09-09T14:50:08;0.70;;;0.33;;
48040;SDS011;33815;48.386;11.738;2022-09-09T14:52:33;1.90;;;0.52;;
48040;SDS011;33815;48.386;11.738;2022-09-09T14:54:59;0.40;;;0.40;;
48040;SDS011;33815;48.386;11.738;2022-09-09T14:57:24;0.30;;;0.30;;
48040;SDS011;33815;48.386;11.738;2022-09-09T14:59:49;0.90;;;0.70;;
48040;SDS011;33815;48.386;11.738;2022-09-09T15:02:15;0.57;;;0.57;;
48040;SDS011;33815;48.386;11.738;2022-09-09T15:04:41;0.70;;;0.68;;
48040;SDS011;33815;48.386;11.738;2022-09-09T15:07:07;1.55;;;0.40;;
48040;SDS011;33815;48.386;11.738;2022-09-09T15:09:32;0.68;;;0.52;;
48040;SDS011;33815;48.386;11.738;2022-09-09T15:11:58;1.67;;;0.68;;
48040;SDS011;33815;48.386;11.738;2022-09-09T15:14:23;1.23;;;0.50;;
48040;SDS011;33815;48.386;11.738;2022-09-09T15:16:48;0.50;;;0.50;;
48040;SDS011;33815;48.386;11.738;2022-09-09T15:19:13;0.80;;;0.50;;
48040;SDS011;33815;48.386;11.738;2022-09-09T15:21:39;0.40;;;0.40;;
48040;SDS011;33815;48.386;11.738;2022-09-09T15:24:04;0.45;;;0.40;;
48040;SDS011;33815;48.386;11.738;2022-09-09T15:26:33;2.72;;;0.63;;
48040;SDS011;33815;48.386;11.738;2022-09-09T15:28:58;1.65;;;0.60;;
48040;SDS011;33815;48.386;11.738;2022-09-09T15:31:28;0.77;;;0.68;;
48040;SDS011;33815;48.386;11.738;2022-09-09T15:33:59;1.08;;;0.60;;
48040;SDS011;33815;48.386;11.738;2022-09-09T15:36:30;1.63;;;0.77;;
48040;SDS011;33815;48.386;11.738;2022-09-09T15:39:00;0.35;;;0.30;;
48040;SDS011;33815;48.386;11.738;2022-09-09T15:41:26;1.00;;;0.52;;
48040;SDS011;33815;48.386;11.738;2022-09-09T15:43:53;1.75;;;0.60;;
48040;SDS011;33815;48.386;11.738;2022-09-09T15:49:02;1.30;;;0.50;;
48040;SDS011;33815;48.386;11.738;2022-09-09T15:51:29;2.40;;;0.73;;
48040;SDS011;33815;48.386;11.738;2022-09-09T15:53:55;1.23;;;0.50;;
48040;SDS011;33815;48.386;11.738;2022-09-09T15:56:23;0.90;;;0.50;;
48040;SDS011;33815;48.386;11.738;2022-09-09T15:58:49;0.40;;;0.40;;
48040;SDS011;33815;48.386;11.738;2022-09-09T16:01:16;0.43;;;0.43;;
48040;SDS011;33815;48.386;11.738;2022-09-09T16:03:43;1.55;;;0.50;;
48040;SDS011;33815;48.386;11.738;2022-09-09T16:06:13;3.67;;;0.60;;
48040;SDS011;33815;48.386;11.738;2022-09-09T16:08:40;1.40;;;0.63;;
48040;SDS011;33815;48.386;11.738;2022-09-09T16:11:12;4.10;;;0.75;;
48040;SDS011;33815;48.386;11.738;2022-09-09T16:13:40;0.45;;;0.30;;
48040;SDS011;33815;48.386;11.738;2022-09-09T16:16:07;2.25;;;0.30;;
48040;SDS011;33815;48.386;11.738;2022-09-09T16:18:37;1.65;;;0.60;;
48040;SDS011;33815;48.386;11.738;2022-09-09T16:21:05;0.75;;;0.52;;
48040;SDS011;33815;48.386;11.738;2022-09-09T16:23:32;2.88;;;1.02;;
48040;SDS011;33815;48.386;11.738;2022-09-09T16:26:01;0.65;;;0.47;;
48040;SDS011;33815;48.386;11.738;2022-09-09T16:28:27;1.38;;;0.65;;
48040;SDS011;33815;48.386;11.738;2022-09-09T16:30:53;0.80;;;0.50;;
48040;SDS011;33815;48.386;11.738;2022-09-09T16:33:19;1.13;;;0.55;;
48040;SDS011;33815;48.386;11.738;2022-09-09T16:35:44;2.45;;;1.27;;
48040;SDS011;33815;48.386;11.738;2022-09-09T16:38:10;2.30;;;0.77;;